Terminal Aerodrome Forecast
Issued by NWS

Home | Current Version | Previous Version | Text Only | Print | Product List | Glossary On
Versions: 1 2 3 4 5 6 7 8 9 10 11 12 13 14 15 16 17 18 19 20 21 22 23 24 25 26 27 28 29 30 31 32 33 34 35 36 37 38 39 40
047
FTUS41 KRNK 061132
TAFBCB
TAF
KBCB 061132Z 0612/0712 30004KT P6SM OVC025
      TEMPO 0612/0613 SCT020 BKN060
     FM061500 33011G18KT P6SM OVC035
     FM061900 32013G23KT P6SM VCSH OVC050
     FM062100 32013G24KT P6SM BKN060
     FM070000 31006KT P6SM BKN060
     FM070600 28005KT P6SM SCT050=

USA.gov is the U.S. government's official web portal to all federal, state and local government web resources and services.